Time;durP1;ratioP1;P1;durP2;ratioP2;P2;SDS_P1;SDS_P2;PMS_P1;PMS_P2;Temp;Humidity;BMP_temperature;BMP_pressure;BME280_temperature;BME280_humidity;BME280_pressure;Samples;Min_cycle;Max_cycle;Signal;HPM_P1;HPM_P2
2023/07/01 00:01:35;;;;;;;0.25;0.25;;;17.00;99.90;;;;;;5122661;27;20131;-67
2023/07/01 00:04:01;;;;;;;0.10;0.10;;;17.10;99.90;;;;;;5117455;27;20050;-67
2023/07/01 00:06:27;;;;;;;0.00;0.00;;;17.10;99.90;;;;;;5118441;28;20051;-68
2023/07/01 00:08:54;;;;;;;0.03;0.03;;;17.00;99.90;;;;;;5119015;28;20123;-67
2023/07/01 00:11:20;;;;;;;0.25;0.25;;;17.10;99.90;;;;;;5119388;27;20051;-67
2023/07/01 00:13:46;;;;;;;0.15;0.15;;;17.10;99.90;;;;;;5121070;27;20062;-67
2023/07/01 00:16:13;;;;;;;0.00;0.00;;;17.10;99.90;;;;;;5126926;28;20494;-67
2023/07/01 00:18:40;;;;;;;0.75;0.75;;;17.10;99.90;;;;;;5127630;27;20050;-67
2023/07/01 00:21:06;;;;;;;0.00;0.00;;;17.00;99.90;;;;;;5113383;27;20035;-67
2023/07/01 00:23:31;;;;;;;4.53;1.33;;;17.00;99.90;;;;;;5118816;28;20036;-67
2023/07/01 00:25:57;;;;;;;0.00;0.00;;;17.00;99.90;;;;;;5118799;28;20729;-67
2023/07/01 00:28:23;;;;;;;0.00;0.00;;;17.00;99.90;;;;;;5125641;28;20043;-68
2023/07/01 00:30:48;;;;;;;1.20;1.10;;;17.00;99.90;;;;;;5116130;28;20104;-67
2023/07/01 00:33:14;;;;;;;0.38;0.38;;;17.00;99.90;;;;;;5135137;27;20486;-67
2023/07/01 00:35:39;;;;;;;0.00;0.00;;;17.10;99.90;;;;;;5142002;27;20045;-67
2023/07/01 00:38:05;;;;;;;0.65;0.65;;;17.00;99.90;;;;;;5149336;27;20034;-67
2023/07/01 00:40:31;;;;;;;0.10;0.10;;;17.10;99.90;;;;;;5125245;27;20092;-67
2023/07/01 00:42:56;;;;;;;0.30;0.30;;;17.00;99.90;;;;;;5145804;27;20439;-67
2023/07/01 00:45:22;;;;;;;0.05;0.05;;;17.00;99.90;;;;;;5153994;27;20035;-68
2023/07/01 00:47:48;;;;;;;8.68;2.60;;;16.90;99.90;;;;;;5142480;27;20062;-68
2023/07/01 00:50:14;;;;;;;0.00;0.00;;;16.90;99.90;;;;;;5147320;27;20496;-68
2023/07/01 00:52:41;;;;;;;0.52;0.52;;;16.80;99.90;;;;;;5126176;27;20047;-68
2023/07/01 00:55:08;;;;;;;0.15;0.15;;;16.70;99.90;;;;;;5142373;27;20069;-67
2023/07/01 00:57:34;;;;;;;0.03;0.03;;;16.60;99.90;;;;;;5129702;27;20046;-68
2023/07/01 01:00:11;;;;;;;0.47;0.47;;;16.60;99.90;;;;;;5143416;27;20035;-68
2023/07/01 01:02:47;;;;;;;0.00;0.00;;;16.50;99.90;;;;;;5141325;27;20050;-69
2023/07/01 01:05:19;;;;;;;0.00;0.00;;;16.50;99.90;;;;;;5144703;27;20491;-68
2023/07/01 01:07:54;;;;;;;0.00;0.00;;;16.50;99.90;;;;;;5121272;27;20043;-68
2023/07/01 01:10:22;;;;;;;0.17;0.17;;;16.50;99.90;;;;;;5144147;27;20047;-67
2023/07/01 01:12:53;;;;;;;0.00;0.00;;;16.50;99.90;;;;;;5137925;27;20103;-67
2023/07/01 01:15:19;;;;;;;0.20;0.20;;;16.40;99.90;;;;;;5145983;27;20466;-67
2023/07/01 01:17:45;;;;;;;0.52;0.52;;;16.50;99.90;;;;;;5145294;27;20086;-67
2023/07/01 01:20:20;;;;;;;0.10;0.10;;;16.50;99.90;;;;;;5142452;27;20042;-67
2023/07/01 01:22:53;;;;;;;1.13;0.60;;;16.50;99.90;;;;;;5136823;27;20735;-67
2023/07/01 01:25:57;;;;;;;0.10;0.10;;;16.50;99.90;;;;;;5150644;27;20054;-67
2023/07/01 01:28:22;;;;;;;0.38;0.17;;;16.50;99.90;;;;;;5150381;27;20079;-67
2023/07/01 01:30:48;;;;;;;0.10;0.10;;;16.50;99.90;;;;;;5139157;27;20123;-67
2023/07/01 01:33:14;;;;;;;0.10;0.10;;;16.60;99.90;;;;;;5144642;27;20496;-66
2023/07/01 01:35:39;;;;;;;0.32;0.32;;;16.50;99.90;;;;;;5141345;27;20047;-67
2023/07/01 01:38:15;;;;;;;0.00;0.00;;;16.50;99.90;;;;;;5139775;27;20538;-67
2023/07/01 01:41:06;;;;;;;0.00;0.00;;;16.60;99.90;;;;;;5140038;27;20038;-67
2023/07/01 01:43:59;;;;;;;0.30;0.22;;;16.50;99.90;;;;;;5120526;27;20082;-67
2023/07/01 01:46:26;;;;;;;0.00;0.00;;;16.50;99.90;;;;;;5142544;27;20054;-67
2023/07/01 01:48:56;;;;;;;0.55;0.55;;;16.50;99.90;;;;;;5144350;27;20051;-67
2023/07/01 01:51:23;;;;;;;0.05;0.05;;;16.60;99.90;;;;;;5123614;27;20038;-67
2023/07/01 01:53:51;;;;;;;1.77;0.82;;;16.50;99.90;;;;;;5143430;27;20027;-67
2023/07/01 01:56:18;;;;;;;0.10;0.10;;;16.50;99.90;;;;;;5145270;27;20075;-67
2023/07/01 01:58:44;;;;;;;1.35;0.98;;;16.50;99.90;;;;;;5147039;27;20311;-67
2023/07/01 02:01:10;;;;;;;0.75;0.57;;;16.50;99.90;;;;;;5142415;27;20693;-68
2023/07/01 02:03:35;;;;;;;0.03;0.03;;;16.50;99.90;;;;;;5152171;27;20068;-67
2023/07/01 02:06:01;;;;;;;0.82;0.82;;;16.50;99.90;;;;;;5139025;27;20079;-67
2023/07/01 02:08:26;;;;;;;2.13;2.00;;;16.50;99.90;;;;;;5143668;27;20095;-67
2023/07/01 02:10:52;;;;;;;0.20;0.20;;;16.50;99.90;;;;;;5143720;27;20099;-67
2023/07/01 02:13:18;;;;;;;0.00;0.00;;;16.50;99.90;;;;;;5138351;27;20039;-67
2023/07/01 02:15:44;;;;;;;1.35;0.47;;;16.50;99.90;;;;;;5143826;27;20046;-66
2023/07/01 02:18:09;;;;;;;0.00;0.00;;;16.50;99.90;;;;;;5124200;27;20119;-67
2023/07/01 02:20:35;;;;;;;1.35;0.55;;;16.50;99.90;;;;;;5143797;27;20656;-66
2023/07/01 02:23:01;;;;;;;0.10;0.10;;;16.50;99.90;;;;;;5148567;27;20532;-66
2023/07/01 02:25:26;;;;;;;0.10;0.10;;;16.50;99.90;;;;;;5141156;27;20035;-66
2023/07/01 02:27:52;;;;;;;0.10;0.10;;;16.60;99.90;;;;;;5138427;27;20042;-67
2023/07/01 02:30:17;;;;;;;0.40;0.40;;;16.60;99.90;;;;;;5150553;27;20125;-67
2023/07/01 02:32:43;;;;;;;0.00;0.00;;;16.60;99.90;;;;;;5143766;27;20077;-67
2023/07/01 02:35:09;;;;;;;0.08;0.08;;;16.60;99.90;;;;;;5139042;27;20039;-67
2023/07/01 02:37:34;;;;;;;3.85;0.85;;;16.60;99.90;;;;;;5144269;27;20680;-67
2023/07/01 02:40:00;;;;;;;1.85;1.27;;;16.60;99.90;;;;;;5125656;27;20043;-67
2023/07/01 02:42:26;;;;;;;0.03;0.03;;;16.60;99.90;;;;;;5139850;27;20047;-67
2023/07/01 02:44:52;;;;;;;0.20;0.20;;;16.60;99.90;;;;;;5143589;27;20501;-67
2023/07/01 02:47:18;;;;;;;0.00;0.00;;;16.60;99.90;;;;;;5128732;27;20035;-67
2023/07/01 02:49:44;;;;;;;0.10;0.10;;;16.60;99.90;;;;;;5140727;27;20297;-67
2023/07/01 02:52:11;;;;;;;0.05;0.05;;;16.60;99.90;;;;;;5141648;27;20062;-67
2023/07/01 02:54:39;;;;;;;0.00;0.00;;;16.60;99.90;;;;;;5141649;27;20114;-66
2023/07/01 02:57:09;;;;;;;0.10;0.10;;;16.60;99.90;;;;;;5135636;27;20039;-67
2023/07/01 02:59:36;;;;;;;0.00;0.00;;;16.60;99.90;;;;;;5144672;27;20494;-67
2023/07/01 03:02:04;;;;;;;0.00;0.00;;;16.60;99.90;;;;;;5142837;27;20033;-68
2023/07/01 03:04:29;;;;;;;0.03;0.03;;;16.60;99.90;;;;;;5134859;27;20083;-67
2023/07/01 03:06:55;;;;;;;0.20;0.20;;;16.50;99.90;;;;;;5148919;27;20062;-68
2023/07/01 03:09:21;;;;;;;0.08;0.08;;;16.50;99.90;;;;;;5139240;27;20537;-67
2023/07/01 03:11:46;;;;;;;0.00;0.00;;;16.50;99.90;;;;;;5117702;27;20038;-67
2023/07/01 03:14:12;;;;;;;0.13;0.13;;;16.50;99.90;;;;;;5142067;27;21187;-67
2023/07/01 03:16:41;;;;;;;0.43;0.35;;;16.50;99.90;;;;;;5151969;27;20401;-67
2023/07/01 03:19:07;;;;;;;0.52;0.43;;;16.50;99.90;;;;;;5137007;27;20118;-67
2023/07/01 03:21:33;;;;;;;0.00;0.00;;;16.50;99.90;;;;;;5142013;27;20172;-67
2023/07/01 03:24:00;;;;;;;0.00;0.00;;;16.50;99.90;;;;;;5138334;27;20063;-66
2023/07/01 03:26:26;;;;;;;0.00;0.00;;;16.50;99.90;;;;;;5143180;27;20042;-66
2023/07/01 03:28:53;;;;;;;0.20;0.20;;;16.40;99.90;;;;;;5138332;27;20043;-67
2023/07/01 03:31:22;;;;;;;0.20;0.20;;;16.50;99.90;;;;;;5122303;27;20103;-67
2023/07/01 03:33:48;;;;;;;0.00;0.00;;;16.40;99.90;;;;;;5140667;27;20039;-67
2023/07/01 03:36:14;;;;;;;0.00;0.00;;;16.40;99.90;;;;;;5141366;27;20059;-67
2023/07/01 03:38:40;;;;;;;0.00;0.00;;;16.40;99.90;;;;;;5122915;27;20043;-67
2023/07/01 03:41:09;;;;;;;0.30;0.30;;;16.40;99.90;;;;;;5136820;27;20035;-67
2023/07/01 03:43:35;;;;;;;0.00;0.00;;;16.40;99.90;;;;;;5147171;27;20212;-66
2023/07/01 03:46:01;;;;;;;0.00;0.00;;;16.40;99.90;;;;;;5139191;27;20035;-67
2023/07/01 03:48:27;;;;;;;0.10;0.10;;;16.40;99.90;;;;;;5139445;27;20038;-66
2023/07/01 03:50:53;;;;;;;1.75;0.85;;;16.40;99.90;;;;;;5140075;27;20122;-66
2023/07/01 03:53:18;;;;;;;0.70;0.22;;;16.40;99.90;;;;;;5138933;27;20190;-67
2023/07/01 03:55:44;;;;;;;0.20;0.20;;;16.40;99.90;;;;;;5135834;27;20134;-67
2023/07/01 03:58:10;;;;;;;0.75;0.28;;;16.40;99.90;;;;;;5123884;27;20615;-66
2023/07/01 04:00:35;;;;;;;0.05;0.05;;;16.50;99.90;;;;;;5141372;27;20039;-67
2023/07/01 04:03:08;;;;;;;0.25;0.25;;;16.40;99.90;;;;;;5123056;27;20074;-67
2023/07/01 04:05:34;;;;;;;0.10;0.10;;;16.50;99.90;;;;;;5141545;27;20038;-66
2023/07/01 04:08:01;;;;;;;0.30;0.15;;;16.50;99.90;;;;;;5149112;27;20476;-67
2023/07/01 04:10:26;;;;;;;0.80;0.32;;;16.50;99.90;;;;;;5136528;27;20521;-67
2023/07/01 04:12:52;;;;;;;0.00;0.00;;;16.50;99.90;;;;;;5145455;27;20043;-67
2023/07/01 04:15:18;;;;;;;0.03;0.03;;;16.50;99.90;;;;;;5138494;27;20043;-68
2023/07/01 04:17:48;;;;;;;0.30;0.30;;;16.50;99.90;;;;;;5136691;27;20046;-68
2023/07/01 04:20:14;;;;;;;0.10;0.10;;;16.50;99.90;;;;;;5144506;27;20074;-68
2023/07/01 04:22:41;;;;;;;1.35;0.65;;;16.50;99.90;;;;;;5141866;27;20474;-68
2023/07/01 04:25:08;;;;;;;0.13;0.13;;;16.50;99.90;;;;;;5126426;27;20060;-67
2023/07/01 04:27:34;;;;;;;1.25;0.30;;;16.50;99.90;;;;;;5111092;28;20561;-67
2023/07/01 04:30:00;;;;;;;1.23;0.65;;;16.50;99.90;;;;;;5139259;27;20034;-68
2023/07/01 04:32:26;;;;;;;0.00;0.00;;;16.50;99.90;;;;;;5144538;27;20099;-68
2023/07/01 04:34:53;;;;;;;0.40;0.40;;;16.50;99.90;;;;;;5140729;27;20470;-67
2023/07/01 04:37:19;;;;;;;0.20;0.20;;;16.50;99.90;;;;;;5142340;27;20039;-67
2023/07/01 04:39:44;;;;;;;0.00;0.00;;;16.50;99.90;;;;;;5137121;27;20118;-67
2023/07/01 04:42:10;;;;;;;0.30;0.30;;;16.50;99.90;;;;;;5119292;27;20474;-67
2023/07/01 04:44:36;;;;;;;0.13;0.13;;;16.50;99.90;;;;;;5125001;27;20124;-67
2023/07/01 04:47:01;;;;;;;0.47;0.47;;;16.50;99.90;;;;;;5120714;27;20102;-67
2023/07/01 04:49:27;;;;;;;0.70;0.40;;;16.60;99.90;;;;;;5139188;27;20422;-68
2023/07/01 04:51:52;;;;;;;0.10;0.10;;;16.60;99.90;;;;;;5143121;27;20076;-67
2023/07/01 04:54:18;;;;;;;0.00;0.00;;;16.60;99.90;;;;;;5143455;27;20483;-67
2023/07/01 04:56:44;;;;;;;0.30;0.30;;;16.60;99.90;;;;;;5130538;27;20164;-67
2023/07/01 04:59:09;;;;;;;0.10;0.10;;;16.60;99.90;;;;;;5141303;27;20030;-67
2023/07/01 05:01:35;;;;;;;0.30;0.30;;;16.60;99.90;;;;;;5137195;27;20043;-67
2023/07/01 05:04:01;;;;;;;0.00;0.00;;;16.60;99.90;;;;;;5141894;27;20082;-67
2023/07/01 05:06:27;;;;;;;0.15;0.15;;;16.60;99.90;;;;;;5132136;27;20046;-67
2023/07/01 05:08:53;;;;;;;0.00;0.00;;;16.70;99.90;;;;;;5139072;27;20135;-67
2023/07/01 05:11:19;;;;;;;1.05;0.20;;;16.70;99.90;;;;;;5143355;27;20043;-66
2023/07/01 05:13:44;;;;;;;0.00;0.00;;;16.70;99.90;;;;;;5142244;27;20047;-66
2023/07/01 05:16:10;;;;;;;0.00;0.00;;;16.70;99.90;;;;;;5114269;27;20035;-66
2023/07/01 05:18:36;;;;;;;0.00;0.00;;;16.70;99.90;;;;;;5138132;27;20161;-67
2023/07/01 05:21:02;;;;;;;0.32;0.32;;;16.70;99.90;;;;;;5134313;27;20046;-67
2023/07/01 05:23:27;;;;;;;0.00;0.00;;;16.70;99.90;;;;;;5140691;27;20034;-67
2023/07/01 05:25:53;;;;;;;0.00;0.00;;;16.70;99.90;;;;;;5139446;27;20066;-67
2023/07/01 05:28:18;;;;;;;0.38;0.22;;;16.70;99.90;;;;;;5126009;27;20078;-67
2023/07/01 05:30:45;;;;;;;0.10;0.10;;;16.70;99.90;;;;;;5140109;27;20047;-67
2023/07/01 05:33:11;;;;;;;0.25;0.25;;;16.80;99.90;;;;;;5144107;27;20070;-67
2023/07/01 05:35:37;;;;;;;0.00;0.00;;;16.80;99.90;;;;;;5126720;27;20466;-67
2023/07/01 05:38:12;;;;;;;0.15;0.15;;;16.80;99.90;;;;;;5148207;27;20068;-66
2023/07/01 05:40:38;;;;;;;0.00;0.00;;;16.80;99.90;;;;;;5116724;27;20058;-66
2023/07/01 05:43:04;;;;;;;0.00;0.00;;;16.80;99.90;;;;;;5123523;27;20099;-66
2023/07/01 05:45:30;;;;;;;0.10;0.10;;;16.80;99.90;;;;;;5124111;27;20046;-66
2023/07/01 05:47:56;;;;;;;0.00;0.00;;;16.80;99.90;;;;;;5147122;27;20613;-66
2023/07/01 05:50:22;;;;;;;2.42;0.43;;;16.80;99.90;;;;;;5142535;27;20039;-66
2023/07/01 05:52:48;;;;;;;0.10;0.10;;;16.80;99.90;;;;;;5142213;27;20053;-67
2023/07/01 05:55:13;;;;;;;0.00;0.00;;;16.90;99.90;;;;;;5139853;27;20065;-66
2023/07/01 05:57:39;;;;;;;0.00;0.00;;;16.90;99.90;;;;;;5147457;27;20720;-66
2023/07/01 06:00:06;;;;;;;0.00;0.00;;;16.90;99.90;;;;;;5141727;27;20034;-67
2023/07/01 06:02:32;;;;;;;0.00;0.00;;;16.90;99.90;;;;;;5150770;27;20054;-67
2023/07/01 06:04:58;;;;;;;0.00;0.00;;;16.90;99.90;;;;;;5141716;27;20475;-67
2023/07/01 06:07:23;;;;;;;0.00;0.00;;;16.90;99.90;;;;;;5119231;27;20075;-67
2023/07/01 06:09:49;;;;;;;0.00;0.00;;;16.90;99.90;;;;;;5130340;27;20103;-67
2023/07/01 06:12:15;;;;;;;0.10;0.10;;;16.90;99.90;;;;;;5141270;27;20071;-67
2023/07/01 06:14:42;;;;;;;0.00;0.00;;;16.90;99.90;;;;;;5141606;27;20046;-66
2023/07/01 06:17:07;;;;;;;0.10;0.10;;;16.90;99.90;;;;;;5138542;27;20039;-66
2023/07/01 06:19:33;;;;;;;0.00;0.00;;;17.00;99.90;;;;;;5141381;27;20043;-67
2023/07/01 06:21:59;;;;;;;0.00;0.00;;;17.00;99.90;;;;;;5136037;27;20104;-67
2023/07/01 06:24:24;;;;;;;1.02;0.38;;;17.00;99.90;;;;;;5125230;27;20054;-67
2023/07/01 06:26:50;;;;;;;0.00;0.00;;;17.00;99.90;;;;;;5139791;27;20118;-67
2023/07/01 06:29:15;;;;;;;0.00;0.00;;;17.00;99.90;;;;;;5139082;27;20132;-67
2023/07/01 06:31:41;;;;;;;0.00;0.00;;;17.00;99.90;;;;;;5150773;27;20399;-67
2023/07/01 06:34:17;;;;;;;0.00;0.00;;;17.10;99.90;;;;;;5129299;27;20065;-68
2023/07/01 06:36:44;;;;;;;0.00;0.00;;;17.10;99.90;;;;;;5146043;27;20050;-67
2023/07/01 06:39:09;;;;;;;0.00;0.00;;;17.10;99.90;;;;;;5147425;27;20114;-67
2023/07/01 06:41:35;;;;;;;0.00;0.00;;;17.10;99.90;;;;;;5135803;27;20778;-67
2023/07/01 06:44:01;;;;;;;0.00;0.00;;;17.10;99.90;;;;;;5143199;27;20113;-66
2023/07/01 06:46:27;;;;;;;0.00;0.00;;;17.20;99.90;;;;;;5142997;27;20043;-67
2023/07/01 06:48:52;;;;;;;0.00;0.00;;;17.20;99.90;;;;;;5142858;27;20042;-67
2023/07/01 06:51:18;;;;;;;0.00;0.00;;;17.20;99.90;;;;;;5143745;27;20043;-67
2023/07/01 06:53:43;;;;;;;0.13;0.13;;;17.20;99.90;;;;;;5142220;27;20290;-67
2023/07/01 06:56:10;;;;;;;0.00;0.00;;;17.30;99.90;;;;;;5145435;27;20039;-66
2023/07/01 06:58:35;;;;;;;0.00;0.00;;;17.30;99.90;;;;;;5136198;27;20386;-66
2023/07/01 07:01:01;;;;;;;0.00;0.00;;;17.30;99.90;;;;;;5142732;27;20039;-67
2023/07/01 07:03:26;;;;;;;0.00;0.00;;;17.30;99.90;;;;;;5142745;27;20618;-67
2023/07/01 07:05:54;;;;;;;0.00;0.00;;;17.30;99.90;;;;;;5141609;27;20157;-67
2023/07/01 07:08:20;;;;;;;0.00;0.00;;;17.30;99.90;;;;;;5138070;27;20049;-67
2023/07/01 07:10:46;;;;;;;0.00;0.00;;;17.40;99.90;;;;;;5143981;27;20133;-67
2023/07/01 07:13:11;;;;;;;0.00;0.00;;;17.40;99.90;;;;;;5136915;27;20049;-67
2023/07/01 07:15:38;;;;;;;0.00;0.00;;;17.40;99.90;;;;;;5147109;27;20465;-67
2023/07/01 07:18:06;;;;;;;0.22;0.22;;;17.40;99.90;;;;;;5116169;27;20039;-67
2023/07/01 07:20:32;;;;;;;0.00;0.00;;;17.40;99.90;;;;;;5144547;27;20084;-67
2023/07/01 07:22:57;;;;;;;1.88;1.35;;;17.50;99.90;;;;;;5119909;27;20046;-67
2023/07/01 07:25:23;;;;;;;0.00;0.00;;;17.50;99.90;;;;;;5127184;27;20035;-67
2023/07/01 07:27:48;;;;;;;0.00;0.00;;;17.50;99.90;;;;;;5142740;27;20035;-67
2023/07/01 07:30:14;;;;;;;0.00;0.00;;;17.50;99.90;;;;;;5148564;27;20057;-67
2023/07/01 07:32:40;;;;;;;0.00;0.00;;;17.50;99.90;;;;;;5136969;27;20050;-67
2023/07/01 07:35:06;;;;;;;0.00;0.00;;;17.50;99.90;;;;;;5141757;27;20055;-67
2023/07/01 07:37:32;;;;;;;0.00;0.00;;;17.50;99.90;;;;;;5115816;27;20057;-68
2023/07/01 07:39:59;;;;;;;0.63;0.63;;;17.60;99.90;;;;;;5130224;27;20095;-67
2023/07/01 07:42:25;;;;;;;0.00;0.00;;;17.60;99.90;;;;;;5143839;27;20051;-67
2023/07/01 07:44:51;;;;;;;0.00;0.00;;;17.60;99.90;;;;;;5140912;27;20478;-67
2023/07/01 07:47:16;;;;;;;0.00;0.00;;;17.60;99.90;;;;;;5147242;27;20050;-68
2023/07/01 07:49:42;;;;;;;0.00;0.00;;;17.70;99.90;;;;;;5142322;27;20043;-67
2023/07/01 07:52:07;;;;;;;0.00;0.00;;;17.60;99.90;;;;;;5123379;27;20037;-67
2023/07/01 07:54:33;;;;;;;0.00;0.00;;;17.70;99.90;;;;;;5123113;27;20102;-67
2023/07/01 07:56:59;;;;;;;0.00;0.00;;;17.70;99.90;;;;;;5145338;27;20659;-67
2023/07/01 07:59:28;;;;;;;0.00;0.00;;;17.70;99.90;;;;;;5131680;27;20067;-68
2023/07/01 08:01:56;;;;;;;0.00;0.00;;;17.70;99.90;;;;;;5142926;27;20133;-67
2023/07/01 08:04:23;;;;;;;0.00;0.00;;;17.70;99.90;;;;;;5125907;27;20043;-67
2023/07/01 08:06:48;;;;;;;0.00;0.00;;;17.70;99.90;;;;;;5148536;27;20081;-67
2023/07/01 08:09:14;;;;;;;0.00;0.00;;;17.70;99.90;;;;;;5142411;27;20070;-67
2023/07/01 08:11:40;;;;;;;0.00;0.00;;;17.70;99.90;;;;;;5141224;27;20034;-67
2023/07/01 08:14:06;;;;;;;0.00;0.00;;;17.70;99.90;;;;;;5142222;27;20046;-68
2023/07/01 08:16:32;;;;;;;0.28;0.20;;;17.70;99.90;;;;;;5121553;27;20076;-67
2023/07/01 08:18:58;;;;;;;0.00;0.00;;;17.70;99.90;;;;;;5136381;27;20043;-67
2023/07/01 08:21:23;;;;;;;0.00;0.00;;;17.70;99.90;;;;;;5148274;27;20037;-67
2023/07/01 08:23:49;;;;;;;0.10;0.10;;;17.70;99.90;;;;;;5141438;27;20052;-67
2023/07/01 08:26:15;;;;;;;0.00;0.00;;;17.70;99.90;;;;;;5138475;27;20127;-67
2023/07/01 08:28:40;;;;;;;0.00;0.00;;;17.70;99.90;;;;;;5135124;27;20030;-67
2023/07/01 08:31:06;;;;;;;0.00;0.00;;;17.80;99.90;;;;;;5121106;27;20096;-67
2023/07/01 08:33:32;;;;;;;0.32;0.32;;;17.80;99.90;;;;;;5137346;27;20365;-67
2023/07/01 08:35:58;;;;;;;0.00;0.00;;;17.70;99.90;;;;;;5146601;27;20043;-67
2023/07/01 08:38:25;;;;;;;0.10;0.10;;;17.80;99.90;;;;;;5140198;27;20114;-67
2023/07/01 08:40:54;;;;;;;0.10;0.10;;;17.80;99.90;;;;;;5118354;27;20045;-67
2023/07/01 08:43:25;;;;;;;0.00;0.00;;;17.80;99.90;;;;;;5140413;27;20555;-68
2023/07/01 08:45:52;;;;;;;0.00;0.00;;;17.80;99.90;;;;;;5118303;27;20043;-67
2023/07/01 08:48:22;;;;;;;0.00;0.00;;;17.90;99.90;;;;;;5138154;27;20100;-67
2023/07/01 08:50:57;;;;;;;0.00;0.00;;;17.90;99.90;;;;;;5135013;27;20081;-67
2023/07/01 08:53:23;;;;;;;0.10;0.10;;;17.90;99.90;;;;;;5138584;27;20087;-68
2023/07/01 08:55:52;;;;;;;0.00;0.00;;;17.90;99.90;;;;;;5124262;27;20066;-68
2023/07/01 08:58:17;;;;;;;0.00;0.00;;;17.90;99.90;;;;;;5144769;27;20039;-67
2023/07/01 09:00:43;;;;;;;5.68;0.47;;;18.00;99.90;;;;;;5143696;27;20375;-67
2023/07/01 09:03:11;;;;;;;0.05;0.05;;;18.00;99.90;;;;;;5125542;27;20054;-67
2023/07/01 09:05:37;;;;;;;0.10;0.10;;;18.00;99.90;;;;;;5145242;27;20043;-67
2023/07/01 09:08:03;;;;;;;0.45;0.45;;;18.00;99.90;;;;;;5141765;27;20554;-67
2023/07/01 09:10:28;;;;;;;0.50;0.50;;;18.00;99.90;;;;;;5143189;27;20050;-68
2023/07/01 09:12:54;;;;;;;0.00;0.00;;;18.00;99.90;;;;;;5151944;27;20434;-68
2023/07/01 09:15:20;;;;;;;0.47;0.43;;;17.90;99.90;;;;;;5139441;27;20051;-68
2023/07/01 09:17:45;;;;;;;0.20;0.20;;;18.00;99.90;;;;;;5118837;27;20038;-68
2023/07/01 09:20:13;;;;;;;2.35;1.40;;;18.10;99.90;;;;;;5135890;27;20039;-67
2023/07/01 09:22:43;;;;;;;0.00;0.00;;;18.10;99.90;;;;;;5146033;27;20030;-68
2023/07/01 09:25:09;;;;;;;1.38;1.15;;;18.20;99.90;;;;;;5150816;27;20034;-68
2023/07/01 09:27:46;;;;;;;0.00;0.00;;;18.20;99.90;;;;;;5141039;27;20050;-67
2023/07/01 09:30:28;;;;;;;0.00;0.00;;;18.20;99.90;;;;;;5141341;27;20072;-68
2023/07/01 09:33:11;;;;;;;0.00;0.00;;;18.20;99.90;;;;;;5145821;27;20054;-68
2023/07/01 09:35:42;;;;;;;0.00;0.00;;;18.30;99.90;;;;;;5144952;27;20047;-68
2023/07/01 09:38:08;;;;;;;4.97;0.57;;;18.20;99.90;;;;;;5139717;27;20039;-68
2023/07/01 09:40:34;;;;;;;0.00;0.00;;;18.20;99.90;;;;;;5151297;27;20034;-68
2023/07/01 09:42:59;;;;;;;0.00;0.00;;;18.20;99.90;;;;;;5142871;27;20079;-68
2023/07/01 09:45:26;;;;;;;0.00;0.00;;;18.20;99.90;;;;;;5145358;27;20469;-68
2023/07/01 09:47:52;;;;;;;0.22;0.22;;;18.20;99.90;;;;;;5143148;27;20057;-67
2023/07/01 09:50:28;;;;;;;0.13;0.13;;;18.20;99.90;;;;;;5143723;27;20371;-67
2023/07/01 09:52:55;;;;;;;0.82;0.52;;;18.30;99.90;;;;;;5138434;27;20066;-67
2023/07/01 09:55:21;;;;;;;0.38;0.38;;;18.30;99.90;;;;;;5151656;27;20860;-67
2023/07/01 09:57:47;;;;;;;0.00;0.00;;;18.30;99.90;;;;;;5145790;27;20031;-67
2023/07/01 10:00:16;;;;;;;0.57;0.40;;;18.30;99.90;;;;;;5142240;27;20054;-67
2023/07/01 10:02:44;;;;;;;0.80;0.63;;;18.30;99.90;;;;;;5142585;27;20035;-67
2023/07/01 10:05:10;;;;;;;0.05;0.05;;;18.30;99.90;;;;;;5138715;27;20542;-67
2023/07/01 10:07:36;;;;;;;0.52;0.40;;;18.30;99.90;;;;;;5150447;27;20039;-67
2023/07/01 10:10:02;;;;;;;0.40;0.40;;;18.30;99.90;;;;;;5146033;27;20051;-67
2023/07/01 10:12:29;;;;;;;0.25;0.20;;;18.40;99.90;;;;;;5144831;27;20039;-67
2023/07/01 10:14:58;;;;;;;0.30;0.30;;;18.50;99.90;;;;;;5138159;27;20051;-67
2023/07/01 10:17:47;;;;;;;0.00;0.00;;;18.50;99.90;;;;;;5142853;27;20066;-67
2023/07/01 10:20:32;;;;;;;0.45;0.45;;;18.50;99.90;;;;;;5140319;27;20047;-67
2023/07/01 10:22:59;;;;;;;0.00;0.00;;;18.60;99.90;;;;;;5149504;27;20042;-67
2023/07/01 10:25:33;;;;;;;0.00;0.00;;;18.70;99.90;;;;;;5133842;27;20049;-68
2023/07/01 10:28:10;;;;;;;0.00;0.00;;;18.70;99.90;;;;;;5136935;27;20092;-67
2023/07/01 10:30:42;;;;;;;0.00;0.00;;;18.70;99.90;;;;;;5139767;27;20127;-67
2023/07/01 10:33:35;;;;;;;0.00;0.00;;;18.70;99.90;;;;;;5123981;27;20492;-67
2023/07/01 10:36:09;;;;;;;0.57;0.57;;;18.60;99.90;;;;;;5141087;27;20047;-67
2023/07/01 10:38:36;;;;;;;0.65;0.35;;;18.60;99.90;;;;;;5134333;27;20424;-67
2023/07/01 10:41:02;;;;;;;0.00;0.00;;;18.50;99.90;;;;;;5140771;27;20421;-67
2023/07/01 10:43:29;;;;;;;1.30;1.20;;;18.50;99.90;;;;;;5140377;27;20038;-66
2023/07/01 10:46:23;;;;;;;0.13;0.13;;;18.50;99.90;;;;;;5125669;27;20100;-67
2023/07/01 10:49:04;;;;;;;1.00;0.77;;;18.60;99.90;;;;;;5124089;27;20103;-67
2023/07/01 10:51:33;;;;;;;0.20;0.15;;;18.70;99.90;;;;;;5141369;27;20173;-67
2023/07/01 10:53:59;;;;;;;0.20;0.20;;;18.80;99.90;;;;;;5142946;27;20073;-67
2023/07/01 10:56:29;;;;;;;0.20;0.20;;;18.80;99.90;;;;;;5140404;27;20066;-67
2023/07/01 10:59:22;;;;;;;0.40;0.40;;;19.00;99.90;;;;;;5136922;27;20577;-67
2023/07/01 11:01:56;;;;;;;0.00;0.00;;;19.10;99.90;;;;;;5140761;27;20125;-67
2023/07/01 11:04:23;;;;;;;4.20;0.57;;;19.00;99.90;;;;;;5140566;27;20043;-67
2023/07/01 11:06:49;;;;;;;0.00;0.00;;;19.00;99.90;;;;;;5123454;27;20043;-67
2023/07/01 11:09:26;;;;;;;0.15;0.15;;;19.10;99.90;;;;;;5146616;27;20050;-67
2023/07/01 11:11:52;;;;;;;0.00;0.00;;;19.10;99.90;;;;;;5123242;27;20501;-67
2023/07/01 11:14:19;;;;;;;0.00;0.00;;;19.10;99.90;;;;;;5125093;27;20050;-67
2023/07/01 11:16:44;;;;;;;0.00;0.00;;;19.20;99.90;;;;;;5142494;27;20107;-67
2023/07/01 11:19:16;;;;;;;0.00;0.00;;;19.20;99.90;;;;;;5134319;27;20467;-67
2023/07/01 11:21:43;;;;;;;0.00;0.00;;;19.10;99.90;;;;;;5147915;27;20031;-67
2023/07/01 11:24:09;;;;;;;0.20;0.20;;;19.30;99.90;;;;;;5140749;27;20045;-67
2023/07/01 11:26:39;;;;;;;1.02;0.90;;;19.30;99.90;;;;;;5148901;27;20071;-67
2023/07/01 11:29:12;;;;;;;0.00;0.00;;;19.20;99.90;;;;;;5136450;27;20532;-67
2023/07/01 11:31:38;;;;;;;0.20;0.20;;;19.30;99.90;;;;;;5136464;27;20834;-67
2023/07/01 11:34:04;;;;;;;0.00;0.00;;;19.40;99.90;;;;;;5139278;27;20085;-67
2023/07/01 11:36:36;;;;;;;0.08;0.08;;;19.50;99.90;;;;;;5136699;27;20085;-67
2023/07/01 11:39:18;;;;;;;0.00;0.00;;;19.50;99.90;;;;;;5149033;27;20050;-67
2023/07/01 11:41:55;;;;;;;0.63;0.63;;;19.40;99.90;;;;;;5146102;27;20042;-67
2023/07/01 11:44:26;;;;;;;0.00;0.00;;;19.30;99.90;;;;;;5123346;27;20133;-67
2023/07/01 11:46:52;;;;;;;0.00;0.00;;;19.30;99.90;;;;;;5127776;27;20133;-68
2023/07/01 11:49:22;;;;;;;0.08;0.08;;;19.40;99.90;;;;;;5141009;27;20035;-69
2023/07/01 11:51:52;;;;;;;0.00;0.00;;;19.50;99.90;;;;;;5124074;27;20050;-68
2023/07/01 11:54:19;;;;;;;0.00;0.00;;;19.50;99.90;;;;;;5125853;27;20043;-68
2023/07/01 11:56:46;;;;;;;0.03;0.03;;;19.60;99.90;;;;;;5140010;27;20068;-68
2023/07/01 11:59:30;;;;;;;0.38;0.22;;;19.60;99.90;;;;;;5115456;27;20055;-69
2023/07/01 12:01:56;;;;;;;0.00;0.00;;;19.50;99.90;;;;;;5120892;27;20055;-68
2023/07/01 12:04:23;;;;;;;0.32;0.28;;;19.80;99.90;;;;;;5137323;27;20066;-68
2023/07/01 12:06:49;;;;;;;0.10;0.10;;;19.90;99.90;;;;;;5121819;27;20419;-68
2023/07/01 12:09:28;;;;;;;0.00;0.00;;;19.80;99.90;;;;;;5140469;27;20702;-68
2023/07/01 12:11:54;;;;;;;0.00;0.00;;;19.70;99.90;;;;;;5139842;27;20041;-68
2023/07/01 12:14:21;;;;;;;0.10;0.10;;;19.70;99.90;;;;;;5135606;27;20394;-68
2023/07/01 12:16:49;;;;;;;3.30;1.23;;;19.70;99.90;;;;;;5148689;27;20043;-68
2023/07/01 12:19:16;;;;;;;0.43;0.30;;;19.70;99.90;;;;;;5138609;27;20054;-68
2023/07/01 12:21:43;;;;;;;0.10;0.10;;;19.80;99.90;;;;;;5138184;27;20514;-68
2023/07/01 12:24:28;;;;;;;0.00;0.00;;;20.10;99.90;;;;;;5141539;27;20045;-68
2023/07/01 12:26:56;;;;;;;0.00;0.00;;;20.00;99.90;;;;;;5119937;28;20071;-68
2023/07/01 12:29:22;;;;;;;0.00;0.00;;;19.80;99.90;;;;;;5136890;27;20034;-68
2023/07/01 12:31:48;;;;;;;0.00;0.00;;;19.70;99.90;;;;;;5140356;27;20051;-68
2023/07/01 12:34:15;;;;;;;0.10;0.10;;;19.60;99.90;;;;;;5127041;27;20147;-68
2023/07/01 12:36:43;;;;;;;0.00;0.00;;;19.50;99.90;;;;;;5148027;27;20063;-68
2023/07/01 12:39:09;;;;;;;0.00;0.00;;;19.40;99.90;;;;;;5138906;27;20054;-68
2023/07/01 12:41:35;;;;;;;0.00;0.00;;;19.30;99.90;;;;;;5150103;27;20032;-68
2023/07/01 12:44:04;;;;;;;0.30;0.30;;;19.40;99.90;;;;;;5123692;27;20141;-69
2023/07/01 12:46:30;;;;;;;0.10;0.10;;;19.40;99.90;;;;;;5129331;27;20126;-68
2023/07/01 12:48:56;;;;;;;0.00;0.00;;;19.40;99.90;;;;;;5126949;27;20058;-68
2023/07/01 12:51:22;;;;;;;0.00;0.00;;;19.50;99.90;;;;;;5146965;27;20482;-68